createdAt,value
2022-09-21T00:01:42.627Z,100036.31
2022-09-21T00:04:12.744Z,100034.53
2022-09-21T00:06:42.405Z,100031.22
2022-09-21T00:09:11.005Z,100034.72
2022-09-21T00:11:39.685Z,100032.25
2022-09-21T00:14:10.779Z,100026.38
2022-09-21T00:16:40.637Z,100035.59
2022-09-21T00:19:09.325Z,100033.03
2022-09-21T00:21:40.047Z,100033.13
2022-09-21T00:24:09.546Z,100026.31
2022-09-21T00:26:38.299Z,100041.72
2022-09-21T00:29:07.566Z,100036.59
2022-09-21T00:31:36.511Z,100050.09
2022-09-21T00:34:08.163Z,100049.97
2022-09-21T00:36:38.453Z,100044.94
2022-09-21T00:39:07.065Z,100039.94
2022-09-21T00:41:36.065Z,100033.19
2022-09-21T00:44:26.418Z,100036.34
2022-09-21T00:46:58.326Z,100034.63
2022-09-21T00:49:29.290Z,100040.59
2022-09-21T00:52:04.712Z,100036.31
2022-09-21T00:54:38.617Z,100028.56
2022-09-21T00:57:08.226Z,100039.59
2022-09-21T00:59:40.086Z,100048.09
2022-09-21T01:02:09.573Z,100045.63
2022-09-21T01:04:40.154Z,100048.22
2022-09-21T01:07:13.178Z,100036.25
2022-09-21T01:09:43.542Z,100043.00
2022-09-21T01:12:30.495Z,100036.31
2022-09-21T01:15:16.348Z,100031.91
2022-09-21T01:17:50.643Z,100033.59
2022-09-21T01:20:49.867Z,100036.13
2022-09-21T01:23:38.277Z,100032.81
2022-09-21T01:26:17.659Z,100037.78
2022-09-21T01:29:09.894Z,100035.97
2022-09-21T01:31:43.923Z,100031.47
2022-09-21T01:34:18.146Z,100040.75
2022-09-21T01:36:49.876Z,100042.50
2022-09-21T01:39:22.217Z,100038.28
2022-09-21T01:41:54.734Z,100039.88
2022-09-21T01:44:30.706Z,100032.19
2022-09-21T01:47:02.388Z,100032.22
2022-09-21T01:49:37.674Z,100043.38
2022-09-21T01:52:23.444Z,100035.97
2022-09-21T01:54:56.644Z,100037.84
2022-09-21T01:57:32.824Z,100044.69
2022-09-21T02:00:03.835Z,100043.06
2022-09-21T02:02:45.393Z,100042.22
2022-09-21T02:05:16.616Z,100037.13
2022-09-21T02:07:46.038Z,100032.91
2022-09-21T02:10:23.797Z,100044.81
2022-09-21T02:13:01.537Z,100048.28
2022-09-21T02:15:38.845Z,100043.19
2022-09-21T02:18:13.445Z,100039.75
2022-09-21T02:20:50.685Z,100045.72
2022-09-21T02:23:25.397Z,100044.09
2022-09-21T02:25:58.673Z,100029.50
2022-09-21T02:28:37.476Z,100034.66
2022-09-21T02:31:15.693Z,100035.59
2022-09-21T02:33:54.791Z,100043.22
2022-09-21T02:36:30.676Z,100033.06
2022-09-21T02:39:06.559Z,100043.19
2022-09-21T02:41:42.203Z,100058.44
2022-09-21T02:44:19.773Z,100051.63
2022-09-21T02:46:55.037Z,100055.03
2022-09-21T02:49:29.496Z,100061.84
2022-09-21T02:52:03.284Z,100068.69
2022-09-21T02:54:34.346Z,100065.34
2022-09-21T02:57:04.834Z,100076.31
2022-09-21T02:59:33.546Z,100075.44
2022-09-21T03:02:07.347Z,100070.34
2022-09-21T03:04:36.165Z,100064.47
2022-09-21T03:07:05.089Z,100072.97
2022-09-21T03:09:33.864Z,100077.09
2022-09-21T03:12:02.787Z,100077.84
2022-09-21T03:14:33.252Z,100080.38
2022-09-21T03:17:03.599Z,100090.59
2022-09-21T03:19:32.214Z,100092.34
2022-09-21T03:22:00.863Z,100089.81
2022-09-21T03:24:39.316Z,100089.06
2022-09-21T03:27:09.364Z,100085.69
2022-09-21T03:29:37.973Z,100085.66
2022-09-21T03:32:08.507Z,100086.03
2022-09-21T03:34:37.162Z,100091.75
2022-09-21T03:37:07.476Z,100088.41
2022-09-21T03:39:36.904Z,100095.16
2022-09-21T03:42:06.035Z,100094.13
2022-09-21T03:44:34.732Z,100094.94
2022-09-21T03:47:03.490Z,100091.53
2022-09-21T03:49:34.970Z,100098.41
2022-09-21T03:52:04.166Z,100098.34
2022-09-21T03:54:32.866Z,100102.63
2022-09-21T03:57:01.461Z,100112.16
2022-09-21T03:59:30.127Z,100110.41
2022-09-21T04:01:58.664Z,100112.97
2022-09-21T04:04:27.264Z,100121.50
2022-09-21T04:06:57.273Z,100112.16
2022-09-21T04:09:25.913Z,100120.47
2022-09-21T04:11:54.704Z,100117.06
2022-09-21T04:14:23.612Z,100122.13
2022-09-21T04:16:52.245Z,100122.19
2022-09-21T04:19:22.720Z,100128.91
2022-09-21T04:21:51.696Z,100122.06
2022-09-21T04:24:21.766Z,100121.97
2022-09-21T04:26:50.505Z,100114.06
2022-09-21T04:29:19.063Z,100118.34
2022-09-21T04:31:47.833Z,100121.75
2022-09-21T04:34:16.386Z,100127.66
2022-09-21T04:36:46.749Z,100125.91
2022-09-21T04:39:15.448Z,100119.63
2022-09-21T04:41:45.646Z,100132.56
2022-09-21T04:44:14.489Z,100135.25
2022-09-21T04:46:43.934Z,100134.50
2022-09-21T04:49:12.714Z,100138.81
2022-09-21T04:51:41.248Z,100133.88
2022-09-21T04:54:09.876Z,100146.78
2022-09-21T04:56:38.554Z,100138.47
2022-09-21T04:59:08.686Z,100137.66
2022-09-21T05:01:37.274Z,100142.06
2022-09-21T05:04:06.017Z,100146.34
2022-09-21T05:06:35.758Z,100147.34
2022-09-21T05:09:14.723Z,100149.97
2022-09-21T05:11:44.073Z,100151.00
2022-09-21T05:14:14.085Z,100145.84
2022-09-21T05:16:42.733Z,100148.53
2022-09-21T05:19:11.356Z,100148.59
2022-09-21T05:21:40.062Z,100145.22
2022-09-21T05:24:08.994Z,100152.22
2022-09-21T05:26:37.594Z,100147.28
2022-09-21T05:29:06.916Z,100148.09
2022-09-21T05:31:46.760Z,100150.88
2022-09-21T05:34:36.785Z,100149.44
2022-09-21T05:37:12.327Z,100150.38
2022-09-21T05:39:41.655Z,100152.19
2022-09-21T05:42:12.755Z,100143.81
2022-09-21T05:44:42.135Z,100156.69
2022-09-21T05:47:25.688Z,100148.25
2022-09-21T05:50:02.924Z,100146.53
2022-09-21T05:52:40.861Z,100150.00
2022-09-21T05:55:19.255Z,100155.25
2022-09-21T05:57:56.834Z,100153.56
2022-09-21T06:00:26.364Z,100141.78
2022-09-21T06:03:25.225Z,100145.38
2022-09-21T06:05:53.999Z,100148.97
2022-09-21T06:08:22.751Z,100149.19
2022-09-21T06:10:51.584Z,100151.03
2022-09-21T06:13:20.137Z,100157.97
2022-09-21T06:15:48.966Z,100153.88
2022-09-21T06:18:19.132Z,100157.41
2022-09-21T06:20:47.814Z,100153.31
2022-09-21T06:23:16.570Z,100159.44
2022-09-21T06:25:45.146Z,100153.63
2022-09-21T06:28:14.445Z,100155.44
2022-09-21T06:30:45.289Z,100153.78
2022-09-21T06:33:20.367Z,100148.75
2022-09-21T06:35:56.224Z,100153.97
2022-09-21T06:38:25.676Z,100155.72
2022-09-21T06:40:54.673Z,100154.09
2022-09-21T06:43:23.567Z,100161.78
2022-09-21T06:45:55.605Z,100166.09
2022-09-21T06:48:24.364Z,100167.00
2022-09-21T06:50:57.862Z,100167.03
2022-09-21T06:53:27.218Z,100180.63
2022-09-21T06:55:55.726Z,100178.09
2022-09-21T06:58:24.357Z,100176.41
2022-09-21T07:00:53.310Z,100183.25
2022-09-21T07:03:21.936Z,100184.97
2022-09-21T07:05:51.574Z,100193.53
2022-09-21T07:11:10.518Z,100183.28
2022-09-21T07:13:39.126Z,100187.53
2022-09-21T07:16:09.435Z,100190.91
2022-09-21T07:18:43.516Z,100185.78
2022-09-21T07:21:15.202Z,100192.56
2022-09-21T07:23:45.519Z,100189.94
2022-09-21T07:26:15.368Z,100195.03
2022-09-21T07:28:44.174Z,100199.28
2022-09-21T07:31:15.339Z,100195.84
2022-09-21T07:33:44.702Z,100188.97
2022-09-21T07:36:13.373Z,100191.50
2022-09-21T07:38:44.114Z,100193.16
2022-09-21T07:41:15.359Z,100194.88
2022-09-21T07:43:44.105Z,100197.44
2022-09-21T07:46:14.898Z,100195.69
2022-09-21T07:48:43.723Z,100196.50
2022-09-21T07:51:15.147Z,100198.13
2022-09-21T07:53:45.624Z,100195.53
2022-09-21T07:56:17.635Z,100191.22
2022-09-21T07:58:56.464Z,100199.75
2022-09-21T08:01:25.736Z,100196.31
2022-09-21T08:03:56.615Z,100197.94
2022-09-21T08:06:27.159Z,100194.44
2022-09-21T08:08:58.087Z,100197.81
2022-09-21T08:11:30.417Z,100186.72
2022-09-21T08:14:01.063Z,100192.69
2022-09-21T08:16:31.255Z,100196.09
2022-09-21T08:19:00.069Z,100201.16
2022-09-21T08:21:28.798Z,100203.66
2022-09-21T08:23:58.074Z,100204.53
2022-09-21T08:26:28.619Z,100202.78
2022-09-21T08:28:59.137Z,100202.75
2022-09-21T08:31:27.811Z,100186.38
2022-09-21T08:33:57.881Z,100192.16
2022-09-21T08:36:26.916Z,100198.81
2022-09-21T08:38:57.235Z,100199.56
2022-09-21T08:41:37.449Z,100201.44
2022-09-21T08:44:13.618Z,100204.16
2022-09-21T08:46:44.720Z,100195.59
2022-09-21T08:49:18.200Z,100193.81
2022-09-21T08:51:51.861Z,100194.53
2022-09-21T08:54:28.804Z,100193.59
2022-09-21T08:57:06.504Z,100201.25
2022-09-21T08:59:36.494Z,100194.31
2022-09-21T09:02:24.032Z,100198.59
2022-09-21T09:05:03.100Z,100192.59
2022-09-21T09:07:54.801Z,100192.72
2022-09-21T09:10:37.672Z,100196.16
2022-09-21T09:13:26.370Z,100203.72
2022-09-21T09:16:07.462Z,100196.66
2022-09-21T09:18:45.076Z,100194.78
2022-09-21T09:21:26.953Z,100192.97
2022-09-21T09:24:04.697Z,100186.19
2022-09-21T09:26:43.174Z,100193.06
2022-09-21T09:29:22.485Z,100189.91
2022-09-21T09:31:55.660Z,100191.75
2022-09-21T09:34:30.893Z,100193.38
2022-09-21T09:37:01.559Z,100202.66
2022-09-21T09:39:32.072Z,100194.88
2022-09-21T09:42:27.063Z,100189.66
2022-09-21T09:45:18.812Z,100190.53
2022-09-21T09:48:01.244Z,100189.66
2022-09-21T09:50:33.541Z,100188.63
2022-09-21T09:53:06.500Z,100187.41
2022-09-21T09:55:40.134Z,100185.41
2022-09-21T09:58:19.094Z,100179.19
2022-09-21T10:00:54.225Z,100181.59
2022-09-21T10:03:24.589Z,100185.88
2022-09-21T10:05:54.477Z,100177.13
2022-09-21T10:08:32.876Z,100184.47
2022-09-21T10:11:01.817Z,100182.75
2022-09-21T10:13:32.938Z,100178.31
2022-09-21T10:16:06.455Z,100161.00
2022-09-21T10:18:39.782Z,100170.06
2022-09-21T10:21:10.726Z,100177.34
2022-09-21T10:23:39.782Z,100167.78
2022-09-21T10:26:11.976Z,100178.03
2022-09-21T10:28:57.645Z,100169.00
2022-09-21T10:31:30.393Z,100173.16
2022-09-21T10:34:15.477Z,100166.97
2022-09-21T10:36:51.928Z,100171.78
2022-09-21T10:39:23.084Z,100176.72
2022-09-21T10:41:55.964Z,100175.84
2022-09-21T10:44:28.575Z,100169.00
2022-09-21T10:47:02.416Z,100162.78
2022-09-21T10:49:31.636Z,100164.25
2022-09-21T10:52:00.795Z,100158.72
2022-09-21T10:54:33.055Z,100165.44
2022-09-21T10:57:05.677Z,100161.47
2022-09-21T10:59:37.324Z,100152.16
2022-09-21T11:02:31.505Z,100156.94
2022-09-21T11:05:06.335Z,100167.69
2022-09-21T11:07:42.374Z,100160.03
2022-09-21T11:10:20.036Z,100149.13
2022-09-21T11:13:00.355Z,100155.31
2022-09-21T11:15:46.182Z,100148.75
2022-09-21T11:18:23.705Z,100149.16
2022-09-21T11:20:56.734Z,100154.63
2022-09-21T11:23:42.372Z,100152.38
2022-09-21T11:26:18.054Z,100144.88
2022-09-21T11:28:54.233Z,100140.22
2022-09-21T11:31:38.322Z,100150.84
2022-09-21T11:34:27.868Z,100152.19
2022-09-21T11:37:06.184Z,100153.34
2022-09-21T11:39:46.698Z,100149.19
2022-09-21T11:42:43.741Z,100139.97
2022-09-21T11:45:29.775Z,100147.09
2022-09-21T11:48:10.895Z,100149.03
2022-09-21T11:50:54.493Z,100141.56
2022-09-21T11:53:38.813Z,100144.25
2022-09-21T11:56:25.253Z,100134.72
2022-09-21T11:59:07.431Z,100139.38
2022-09-21T12:01:49.754Z,100139.53
2022-09-21T12:04:39.321Z,100123.78
2022-09-21T12:07:19.338Z,100139.72
2022-09-21T12:09:59.144Z,100142.91
2022-09-21T12:12:34.584Z,100129.41
2022-09-21T12:15:12.301Z,100132.75
2022-09-21T12:17:50.925Z,100132.00
2022-09-21T12:20:27.483Z,100127.41
2022-09-21T12:23:05.286Z,100119.94
2022-09-21T12:25:39.580Z,100122.47
2022-09-21T12:28:14.853Z,100123.03
2022-09-21T12:30:49.238Z,100133.31
2022-09-21T12:33:24.252Z,100119.22
2022-09-21T12:35:58.447Z,100120.88
2022-09-21T12:41:16.276Z,100129.50
2022-09-21T12:43:50.390Z,100118.97
2022-09-21T12:46:23.246Z,100115.53
2022-09-21T12:48:51.896Z,100105.19
2022-09-21T12:51:26.634Z,100115.22
2022-09-21T12:54:08.897Z,100112.94
2022-09-21T12:56:46.855Z,100122.22
2022-09-21T12:59:27.764Z,100117.06
2022-09-21T13:02:06.139Z,100113.06
2022-09-21T13:04:46.978Z,100114.03
2022-09-21T13:07:38.545Z,100119.44
2022-09-21T13:10:18.136Z,100113.44
2022-09-21T13:12:47.713Z,100112.69
2022-09-21T13:15:24.474Z,100125.69
2022-09-21T13:18:02.086Z,100121.25
2022-09-21T13:20:37.974Z,100118.31
2022-09-21T13:23:07.126Z,100119.44
2022-09-21T13:25:38.262Z,100118.41
2022-09-21T13:28:20.066Z,100108.34
2022-09-21T13:30:51.285Z,100111.44
2022-09-21T13:33:33.026Z,100110.84
2022-09-21T13:36:30.438Z,100118.06
2022-09-21T13:39:17.245Z,100109.78
2022-09-21T13:42:04.016Z,100117.53
2022-09-21T13:44:43.140Z,100111.78
2022-09-21T13:47:14.837Z,100116.91
2022-09-21T13:49:59.845Z,100117.19
2022-09-21T13:52:39.826Z,100133.66
2022-09-21T13:55:25.188Z,100132.56
2022-09-21T13:57:59.114Z,100133.41
2022-09-21T14:00:40.692Z,100122.50
2022-09-21T14:03:24.745Z,100120.97
2022-09-21T14:05:56.561Z,100121.50
2022-09-21T14:08:32.272Z,100126.69
2022-09-21T14:11:06.084Z,100115.16
2022-09-21T14:13:42.279Z,100125.00
2022-09-21T14:16:51.227Z,100121.75
2022-09-21T14:19:49.393Z,100120.16
2022-09-21T14:22:39.614Z,100121.50
2022-09-21T14:25:30.298Z,100123.59
2022-09-21T14:28:07.176Z,100123.09
2022-09-21T14:30:39.243Z,100111.50
2022-09-21T14:33:26.714Z,100117.19
2022-09-21T14:35:57.682Z,100116.78
2022-09-21T14:38:30.058Z,100118.38
2022-09-21T14:41:02.957Z,100119.94
2022-09-21T14:43:35.459Z,100123.34
2022-09-21T14:46:22.102Z,100121.84
2022-09-21T14:49:04.646Z,100122.03
2022-09-21T14:51:43.244Z,100123.41
2022-09-21T14:54:24.232Z,100114.31
2022-09-21T14:57:14.268Z,100114.59
2022-09-21T15:00:08.360Z,100121.69
2022-09-21T15:02:38.548Z,100119.06
2022-09-21T15:05:21.885Z,100111.97
2022-09-21T15:08:27.708Z,100119.47
2022-09-21T15:11:05.535Z,100114.28
2022-09-21T15:13:53.627Z,100119.97
2022-09-21T15:16:40.205Z,100114.88
2022-09-21T15:19:25.817Z,100112.56
2022-09-21T15:21:56.585Z,100108.59
2022-09-21T15:24:32.116Z,100098.44
2022-09-21T15:27:08.443Z,100109.75
2022-09-21T15:29:38.355Z,100114.06
2022-09-21T15:32:08.414Z,100112.50
2022-09-21T15:34:38.626Z,100109.13
2022-09-21T15:37:09.468Z,100107.50
2022-09-21T15:39:38.207Z,100100.72
2022-09-21T15:42:23.408Z,100104.25
2022-09-21T15:45:06.264Z,100113.78
2022-09-21T15:47:35.569Z,100113.88
2022-09-21T15:50:06.219Z,100112.22
2022-09-21T15:52:40.264Z,100120.88
2022-09-21T15:55:15.965Z,100120.97
2022-09-21T15:57:45.448Z,100128.69
2022-09-21T16:00:26.238Z,100129.59
2022-09-21T16:03:05.848Z,100130.53
2022-09-21T16:05:47.837Z,100133.97
2022-09-21T16:08:22.945Z,100133.19
2022-09-21T16:10:51.973Z,100139.25
2022-09-21T16:13:32.048Z,100129.88
2022-09-21T16:16:05.433Z,100134.19
2022-09-21T16:18:43.345Z,100139.38
2022-09-21T16:21:23.156Z,100142.88
2022-09-21T16:23:56.139Z,100142.06
2022-09-21T16:26:28.478Z,100148.09
2022-09-21T16:29:19.265Z,100149.88
2022-09-21T16:31:50.281Z,100153.34
2022-09-21T16:34:37.251Z,100169.63
2022-09-21T16:37:28.916Z,100156.00
2022-09-21T16:39:59.510Z,100162.06
2022-09-21T16:42:33.815Z,100166.34
2022-09-21T16:45:11.957Z,100167.22
2022-09-21T16:47:40.806Z,100170.69
2022-09-21T16:50:19.379Z,100166.47
2022-09-21T16:52:51.896Z,100164.81
2022-09-21T16:55:23.430Z,100163.13
2022-09-21T16:57:55.707Z,100162.28
2022-09-21T17:00:25.981Z,100164.88
2022-09-21T17:02:54.739Z,100169.16
2022-09-21T17:05:23.668Z,100176.06
2022-09-21T17:07:57.704Z,100180.38
2022-09-21T17:10:30.518Z,100182.97
2022-09-21T17:12:59.556Z,100175.31
2022-09-21T17:15:32.585Z,100186.44
2022-09-21T17:18:01.498Z,100188.19
2022-09-21T17:20:37.374Z,100194.22
2022-09-21T17:23:07.540Z,100196.81
2022-09-21T17:25:37.210Z,100194.31
2022-09-21T17:28:13.948Z,100191.75
2022-09-21T17:30:45.180Z,100193.47
2022-09-21T17:33:13.900Z,100196.88
2022-09-21T17:35:43.641Z,100202.03
2022-09-21T17:38:15.357Z,100192.63
2022-09-21T17:40:45.200Z,100201.16
2022-09-21T17:43:33.571Z,100196.94
2022-09-21T17:46:09.243Z,100214.03
2022-09-21T17:48:41.590Z,100196.94
2022-09-21T17:51:11.907Z,100208.88
2022-09-21T17:53:41.934Z,100206.31
2022-09-21T17:56:35.671Z,100210.53
2022-09-21T17:59:06.168Z,100215.63
2022-09-21T18:01:37.502Z,100222.41
2022-09-21T18:04:07.509Z,100217.19
2022-09-21T18:06:36.819Z,100223.97
2022-09-21T18:09:08.316Z,100220.50
2022-09-21T18:12:03.010Z,100234.97
2022-09-21T18:14:41.619Z,100234.88
2022-09-21T18:17:39.640Z,100227.22
2022-09-21T18:20:23.060Z,100229.81
2022-09-21T18:23:00.229Z,100233.19
2022-09-21T18:25:33.788Z,100222.09
2022-09-21T18:28:13.677Z,100240.94
2022-09-21T18:30:57.362Z,100235.00
2022-09-21T18:33:36.346Z,100239.31
2022-09-21T18:36:15.891Z,100249.53
2022-09-21T18:38:52.919Z,100242.72
2022-09-21T18:41:36.860Z,100242.72
2022-09-21T18:44:16.269Z,100244.44
2022-09-21T18:47:01.547Z,100241.84
2022-09-21T18:49:51.489Z,100246.06
2022-09-21T18:52:32.349Z,100249.47
2022-09-21T18:55:02.409Z,100258.00
2022-09-21T18:57:33.452Z,100249.44
2022-09-21T19:00:02.799Z,100246.91
2022-09-21T19:02:32.335Z,100251.16
2022-09-21T19:05:01.560Z,100261.41
2022-09-21T19:07:40.148Z,100246.91
2022-09-21T19:10:16.870Z,100252.03
2022-09-21T19:13:06.102Z,100257.16
2022-09-21T19:15:59.741Z,100247.75
2022-09-21T19:18:38.110Z,100252.88
2022-09-21T19:21:24.637Z,100251.19
2022-09-21T19:24:08.540Z,100252.88
2022-09-21T19:26:48.870Z,100246.94
2022-09-21T19:29:35.518Z,100247.78
2022-09-21T19:32:06.598Z,100243.53
2022-09-21T19:34:35.849Z,100244.41
2022-09-21T19:37:08.073Z,100236.72
2022-09-21T19:39:37.420Z,100240.13
2022-09-21T19:42:16.961Z,100245.25
2022-09-21T19:44:52.029Z,100249.53
2022-09-21T19:47:30.437Z,100235.88
2022-09-21T19:50:13.560Z,100239.28
2022-09-21T19:52:42.871Z,100239.31
2022-09-21T19:55:26.108Z,100241.03
2022-09-21T19:58:09.756Z,100242.72
2022-09-21T20:00:40.458Z,100235.06
2022-09-21T20:03:15.436Z,100239.28
2022-09-21T20:05:51.538Z,100240.97
2022-09-21T20:08:28.651Z,100226.50
2022-09-21T20:11:07.311Z,100226.44
2022-09-21T20:13:53.938Z,100232.38
2022-09-21T20:16:32.576Z,100225.50
2022-09-21T20:19:08.551Z,100225.50
2022-09-21T20:21:40.780Z,100215.28
2022-09-21T20:24:21.828Z,100226.38
2022-09-21T20:26:52.100Z,100219.59
2022-09-21T20:29:22.095Z,100231.53
2022-09-21T20:31:54.251Z,100225.56
2022-09-21T20:34:22.960Z,100226.47
2022-09-21T20:36:51.611Z,100229.88
2022-09-21T20:39:20.350Z,100232.41
2022-09-21T20:41:49.028Z,100239.22
2022-09-21T20:44:17.691Z,100235.78
2022-09-21T20:46:46.391Z,100245.97
2022-09-21T20:49:16.570Z,100246.75
2022-09-21T20:51:46.282Z,100250.97
2022-09-21T20:54:14.607Z,100250.84
2022-09-21T20:56:43.541Z,100246.38
2022-09-21T20:59:12.381Z,100252.28
2022-09-21T21:01:41.302Z,100252.22
2022-09-21T21:04:10.149Z,100247.00
2022-09-21T21:06:40.251Z,100252.94
2022-09-21T21:09:08.929Z,100247.88
2022-09-21T21:11:37.463Z,100245.31
2022-09-21T21:14:06.189Z,100239.97
2022-09-21T21:16:34.745Z,100256.03
2022-09-21T21:19:03.355Z,100250.00
2022-09-21T21:21:31.960Z,100253.34
2022-09-21T21:24:12.333Z,100252.53
2022-09-21T21:29:29.714Z,100254.28
2022-09-21T21:31:59.918Z,100258.56
2022-09-21T21:34:29.083Z,100246.69
2022-09-21T21:36:57.576Z,100243.34
2022-09-21T21:39:27.948Z,100246.69
2022-09-21T21:41:56.581Z,100254.25
2022-09-21T21:44:25.182Z,100255.06
2022-09-21T21:46:55.022Z,100253.28
2022-09-21T21:49:23.871Z,100247.31
2022-09-21T21:51:52.881Z,100251.56
2022-09-21T21:54:24.169Z,100244.81
2022-09-21T21:56:54.949Z,100232.94
2022-09-21T21:59:23.553Z,100243.13
2022-09-21T22:01:52.678Z,100245.59
2022-09-21T22:04:25.735Z,100241.31
2022-09-21T22:06:56.703Z,100232.69
2022-09-21T22:09:25.233Z,100241.22
2022-09-21T22:11:55.391Z,100239.59
2022-09-21T22:14:24.451Z,100246.31
2022-09-21T22:16:53.070Z,100244.72
2022-09-21T22:19:21.744Z,100238.69
2022-09-21T22:21:54.008Z,100237.81
2022-09-21T22:24:23.563Z,100230.88
2022-09-21T22:26:52.185Z,100229.91
2022-09-21T22:29:22.154Z,100229.03
2022-09-21T22:31:51.701Z,100238.38
2022-09-21T22:34:21.101Z,100238.31
2022-09-21T22:36:50.885Z,100231.56
2022-09-21T22:39:19.622Z,100227.97
2022-09-21T22:41:48.253Z,100220.16
2022-09-21T22:44:16.942Z,100224.38
2022-09-21T22:46:46.911Z,100223.56
2022-09-21T22:49:15.635Z,100222.59
2022-09-21T22:51:44.234Z,100213.28
2022-09-21T22:54:12.834Z,100214.00
2022-09-21T22:56:41.441Z,100218.31
2022-09-21T22:59:10.206Z,100225.94
2022-09-21T23:01:40.512Z,100220.09
2022-09-21T23:04:13.963Z,100224.34
2022-09-21T23:06:45.388Z,100225.22
2022-09-21T23:09:17.121Z,100222.66
2022-09-21T23:11:48.172Z,100219.28
2022-09-21T23:14:18.035Z,100223.53
2022-09-21T23:16:47.279Z,100215.84
2022-09-21T23:19:17.859Z,100221.84
2022-09-21T23:21:50.009Z,100221.91
2022-09-21T23:24:20.071Z,100219.31
2022-09-21T23:26:51.042Z,100223.53
2022-09-21T23:29:20.185Z,100219.31
2022-09-21T23:31:49.067Z,100215.00
2022-09-21T23:34:19.361Z,100213.13
2022-09-21T23:36:48.181Z,100217.22
2022-09-21T23:39:17.282Z,100217.16
2022-09-21T23:41:46.047Z,100221.94
2022-09-21T23:44:14.805Z,100216.72
2022-09-21T23:46:44.030Z,100216.09
2022-09-21T23:49:12.915Z,100207.53
2022-09-21T23:51:43.040Z,100210.00
2022-09-21T23:54:11.725Z,100212.44
2022-09-21T23:56:40.302Z,100215.00
2022-09-21T23:59:09.223Z,100214.25
